Terminal Aerodrome Forecast
Issued by NWS

Home | Current Version | Previous Version | Text Only | Print | Product List | Glossary On
Versions: 1 2 3 4 5 6 7 8 9 10 11 12 13 14 15 16 17 18 19 20 21 22 23 24 25
000
FTUS43 KDMX 182322 CCA
TAFOTM
TAF COR
KOTM 182322Z 1900/1924 19008KT 3SM BR SKC
     FM190200 19006KT 3SM BR BKN006
     FM190400 18005KT 1SM BR OVC005
     FM190600 VRB05KT 1/2SM FG OVC004
     FM191700 10006KT 1SM BR OVC006=

USA.gov is the U.S. government's official web portal to all federal, state and local government web resources and services.